createdAt,value
2022-08-07T00:00:04.026Z,1024
2022-08-07T00:02:41.351Z,1024
2022-08-07T00:02:44.799Z,1024
2022-08-07T00:03:03.348Z,1024
2022-08-07T00:04:03.878Z,1024
2022-08-07T00:05:06.242Z,1024
2022-08-07T00:06:02.119Z,1024
2022-08-07T00:07:09.790Z,1024
2022-08-07T00:08:02.952Z,1024
2022-08-07T00:09:29.306Z,1024
2022-08-07T00:10:31.616Z,1024
2022-08-07T00:11:06.898Z,1024
2022-08-07T00:12:02.745Z,1024
2022-08-07T00:13:27.108Z,1024
2022-08-07T00:14:03.166Z,1024
2022-08-07T00:15:01.988Z,1024.1
2022-08-07T00:16:02.603Z,1024
2022-08-07T00:17:03.388Z,1024
2022-08-07T00:18:03.394Z,1024
2022-08-07T00:19:06.124Z,1024
2022-08-07T00:20:03.971Z,1024
2022-08-07T00:22:02.035Z,1024
2022-08-07T00:22:03.770Z,1024.1
2022-08-07T00:23:02.322Z,1024
2022-08-07T00:24:02.190Z,1024
2022-08-07T00:25:03.618Z,1024.1
2022-08-07T00:26:59.570Z,1024.1
2022-08-07T00:27:10.867Z,1024.1
2022-08-07T00:28:05.187Z,1024
2022-08-07T00:29:06.262Z,1024.1
2022-08-07T00:30:02.070Z,1024.1
2022-08-07T00:31:17.757Z,1024.1
2022-08-07T00:32:02.714Z,1024.1
2022-08-07T00:33:03.260Z,1024.1
2022-08-07T00:34:03.559Z,1024.1
2022-08-07T00:35:02.465Z,1024.1
2022-08-07T00:36:02.304Z,1024.1
2022-08-07T00:37:02.135Z,1024.1
2022-08-07T00:38:01.977Z,1024.1
2022-08-07T00:39:01.959Z,1024.1
2022-08-07T00:40:02.215Z,1024.1
2022-08-07T00:41:02.055Z,1024.1
2022-08-07T00:42:05.974Z,1024.1
2022-08-07T00:43:03.221Z,1024.1
2022-08-07T00:44:03.543Z,1024.1
2022-08-07T00:45:16.512Z,1024.2
2022-08-07T00:46:03.035Z,1024.1
2022-08-07T00:47:02.027Z,1024.1
2022-08-07T00:48:11.341Z,1024.1
2022-08-07T00:49:02.618Z,1024.1
2022-08-07T00:50:51.828Z,1024.1
2022-08-07T00:51:02.798Z,1024.1
2022-08-07T00:52:02.664Z,1024.1
2022-08-07T00:53:02.564Z,1024
2022-08-07T00:54:02.441Z,1024
2022-08-07T00:55:11.127Z,1024
2022-08-07T00:56:13.936Z,1024.1
2022-08-07T00:57:03.966Z,1024.1
2022-08-07T00:58:02.030Z,1024
2022-08-07T00:59:02.282Z,1024.1
2022-08-07T01:00:02.763Z,1024
2022-08-07T01:01:02.564Z,1024
2022-08-07T01:02:02.086Z,1024.1
2022-08-07T01:03:02.282Z,1024
2022-08-07T01:04:02.119Z,1024.1
2022-08-07T01:05:02.804Z,1024
2022-08-07T01:06:02.618Z,1024
2022-08-07T01:07:03.821Z,1024.1
2022-08-07T01:08:02.659Z,1024.1
2022-08-07T01:09:03.428Z,1024
2022-08-07T01:10:12.782Z,1024.1
2022-08-07T01:12:31.005Z,1024.1
2022-08-07T01:12:31.262Z,1024.1
2022-08-07T01:13:03.241Z,1024.1
2022-08-07T01:14:02.735Z,1024.2
2022-08-07T01:15:04.809Z,1024.1
2022-08-07T01:16:06.407Z,1024.1
2022-08-07T01:17:07.617Z,1024.1
2022-08-07T01:18:02.436Z,1024.2
2022-08-07T01:19:18.682Z,1024.1
2022-08-07T01:20:03.902Z,1024.1
2022-08-07T01:21:02.731Z,1024.2
2022-08-07T01:22:09.148Z,1024.1
2022-08-07T01:23:13.698Z,1024.2
2022-08-07T01:24:04.285Z,1024.2
2022-08-07T01:25:56.417Z,1024.2
2022-08-07T01:26:02.390Z,1024.2
2022-08-07T01:27:02.216Z,1024.2
2022-08-07T01:28:02.073Z,1024.2
2022-08-07T01:29:01.941Z,1024.2
2022-08-07T01:30:01.840Z,1024.2
2022-08-07T01:31:03.410Z,1024.2
2022-08-07T01:32:13.911Z,1024.1
2022-08-07T01:33:02.839Z,1024.1
2022-08-07T01:34:04.493Z,1024
2022-08-07T01:35:04.487Z,1024.1
2022-08-07T01:36:10.145Z,1024.1
2022-08-07T01:37:03.261Z,1024
2022-08-07T01:38:02.361Z,1024
2022-08-07T01:39:11.060Z,1024.1
2022-08-07T01:40:02.198Z,1024.1
2022-08-07T01:41:02.132Z,1024.1
2022-08-07T01:42:59.004Z,1024
2022-08-07T01:43:03.826Z,1024.1
2022-08-07T01:44:02.627Z,1024.1
2022-08-07T01:45:03.123Z,1024.1
2022-08-07T01:46:02.675Z,1024.1
2022-08-07T01:48:30.625Z,1024
2022-08-07T01:48:31.088Z,1024
2022-08-07T01:49:03.237Z,1024
2022-08-07T01:50:02.245Z,1024
2022-08-07T01:52:04.838Z,1024
2022-08-07T01:52:06.950Z,1024
2022-08-07T01:53:09.429Z,1024
2022-08-07T01:54:37.377Z,1024
2022-08-07T01:55:04.336Z,1024
2022-08-07T01:56:02.371Z,1024
2022-08-07T01:57:03.870Z,1023.9
2022-08-07T01:58:33.604Z,1023.9
2022-08-07T01:59:02.678Z,1023.9
2022-08-07T02:00:13.657Z,1023.9
2022-08-07T02:02:04.359Z,1023.9
2022-08-07T02:02:06.793Z,1023.9
2022-08-07T02:03:49.111Z,1023.9
2022-08-07T02:04:04.967Z,1024
2022-08-07T02:05:05.326Z,1024
2022-08-07T02:06:02.146Z,1024
2022-08-07T02:07:04.232Z,1023.9
2022-08-07T02:08:01.871Z,1024
2022-08-07T02:09:04.993Z,1023.9
2022-08-07T02:10:01.786Z,1023.9
2022-08-07T02:11:04.123Z,1023.9
2022-08-07T02:12:06.324Z,1024
2022-08-07T02:13:02.398Z,1024
2022-08-07T02:14:03.238Z,1024.1
2022-08-07T02:15:07.420Z,1024
2022-08-07T02:16:07.686Z,1024
2022-08-07T02:17:03.645Z,1024
2022-08-07T02:18:02.471Z,1024.1
2022-08-07T02:20:10.170Z,1024
2022-08-07T02:20:19.986Z,1024.1
2022-08-07T02:21:06.926Z,1024.1
2022-08-07T02:22:08.653Z,1024.1
2022-08-07T02:23:02.531Z,1024.1
2022-08-07T02:24:02.325Z,1024.1
2022-08-07T02:25:18.275Z,1024.1
2022-08-07T02:26:35.058Z,1024
2022-08-07T02:27:03.288Z,1024
2022-08-07T02:28:11.628Z,1024
2022-08-07T02:29:01.991Z,1024
2022-08-07T02:30:08.764Z,1024.1
2022-08-07T02:31:29.733Z,1024.1
2022-08-07T02:32:04.287Z,1024.1
2022-08-07T02:33:10.891Z,1024.1
2022-08-07T02:34:18.284Z,1024.1
2022-08-07T02:35:09.482Z,1024.1
2022-08-07T02:36:34.078Z,1024.1
2022-08-07T02:37:08.690Z,1024.1
2022-08-07T02:38:03.486Z,1024.1
2022-08-07T02:40:01.884Z,1024.1
2022-08-07T02:40:35.611Z,1024
2022-08-07T02:41:04.879Z,1024.1
2022-08-07T02:42:03.056Z,1024
2022-08-07T02:43:08.538Z,1024
2022-08-07T02:44:02.361Z,1024.1
2022-08-07T02:46:02.876Z,1024
2022-08-07T02:46:04.159Z,1024
2022-08-07T02:47:02.583Z,1024
2022-08-07T02:48:02.477Z,1024
2022-08-07T02:49:05.582Z,1024
2022-08-07T02:50:03.727Z,1024
2022-08-07T02:51:02.553Z,1024
2022-08-07T02:52:04.632Z,1024
2022-08-07T02:53:06.807Z,1024.1
2022-08-07T02:54:02.517Z,1024
2022-08-07T02:55:04.391Z,1024
2022-08-07T02:56:17.710Z,1024
2022-08-07T02:57:06.879Z,1024
2022-08-07T02:58:04.162Z,1024
2022-08-07T02:59:02.121Z,1024
2022-08-07T03:00:12.042Z,1024
2022-08-07T03:01:03.904Z,1024
2022-08-07T03:02:03.135Z,1024.1
2022-08-07T03:03:06.576Z,1024.1
2022-08-07T03:04:13.802Z,1024.1
2022-08-07T03:05:07.099Z,1024.1
2022-08-07T03:06:04.053Z,1024.1
2022-08-07T03:07:11.075Z,1024.1
2022-08-07T03:08:10.981Z,1024.1
2022-08-07T03:09:01.837Z,1024.1
2022-08-07T03:10:03.333Z,1024.1
2022-08-07T03:11:03.209Z,1024.1
2022-08-07T03:12:03.849Z,1024.1
2022-08-07T03:13:08.408Z,1024
2022-08-07T03:14:02.685Z,1024.1
2022-08-07T03:15:08.435Z,1024
2022-08-07T03:16:04.242Z,1024
2022-08-07T03:17:05.118Z,1024
2022-08-07T03:18:01.989Z,1024.1
2022-08-07T03:19:02.029Z,1024
2022-08-07T03:20:01.838Z,1024.1
2022-08-07T03:21:03.425Z,1024.1
2022-08-07T03:22:02.290Z,1024
2022-08-07T03:23:02.144Z,1024.1
2022-08-07T03:24:28.363Z,1024.1
2022-08-07T03:25:02.181Z,1024.1
2022-08-07T03:26:02.023Z,1024.1
2022-08-07T03:27:04.615Z,1024.1
2022-08-07T03:28:40.449Z,1024.1
2022-08-07T03:29:02.851Z,1024.1
2022-08-07T03:30:05.045Z,1024.1
2022-08-07T03:31:10.393Z,1024.1
2022-08-07T03:32:04.571Z,1024
2022-08-07T03:33:08.608Z,1024.1
2022-08-07T03:34:01.822Z,1024
2022-08-07T03:35:26.540Z,1024.1
2022-08-07T03:36:02.949Z,1024.1
2022-08-07T03:37:13.113Z,1024.1
2022-08-07T03:38:05.237Z,1024.1
2022-08-07T03:39:09.169Z,1024.1
2022-08-07T03:40:17.490Z,1024.1
2022-08-07T03:41:03.978Z,1024.1
2022-08-07T03:42:02.349Z,1024.1
2022-08-07T03:43:03.338Z,1024.1
2022-08-07T03:44:02.998Z,1024.1
2022-08-07T03:45:03.510Z,1024.1
2022-08-07T03:46:03.367Z,1024.1
2022-08-07T03:47:15.085Z,1024.1
2022-08-07T03:48:01.953Z,1024.1
2022-08-07T03:49:03.864Z,1024.2
2022-08-07T03:50:02.703Z,1024.2
2022-08-07T03:51:03.506Z,1024.2
2022-08-07T03:52:02.608Z,1024.2
2022-08-07T03:53:02.446Z,1024.2
2022-08-07T03:54:57.041Z,1024.2
2022-08-07T03:55:08.263Z,1024.2
2022-08-07T03:56:05.494Z,1024.2
2022-08-07T03:57:07.927Z,1024.1
2022-08-07T03:59:12.875Z,1024.1
2022-08-07T03:59:13.697Z,1024.1
2022-08-07T04:00:04.776Z,1024.1
2022-08-07T04:01:02.759Z,1024.1
2022-08-07T04:02:03.844Z,1024.2
2022-08-07T04:03:05.505Z,1024.1
2022-08-07T04:04:06.570Z,1024.2
2022-08-07T04:05:02.404Z,1024.2
2022-08-07T04:06:03.558Z,1024.2
2022-08-07T04:07:17.898Z,1024.2
2022-08-07T04:08:02.533Z,1024.1
2022-08-07T04:09:04.091Z,1024.2
2022-08-07T04:10:03.497Z,1024.2
2022-08-07T04:12:29.246Z,1024.2
2022-08-07T04:12:29.249Z,1024.2
2022-08-07T04:13:03.045Z,1024.2
2022-08-07T04:14:39.242Z,1024.2
2022-08-07T04:15:05.504Z,1024.2
2022-08-07T04:16:03.143Z,1024.3
2022-08-07T04:17:04.298Z,1024.2
2022-08-07T04:19:12.898Z,1024.3
2022-08-07T04:19:15.767Z,1024.2
2022-08-07T04:20:01.819Z,1024.2
2022-08-07T04:21:02.921Z,1024.3
2022-08-07T04:22:18.044Z,1024.3
2022-08-07T04:23:07.053Z,1024.2
2022-08-07T04:24:08.300Z,1024.2
2022-08-07T04:25:02.746Z,1024.3
2022-08-07T04:26:04.144Z,1024.3
2022-08-07T04:27:01.945Z,1024.3
2022-08-07T04:28:02.250Z,1024.2
2022-08-07T04:29:03.635Z,1024.3
2022-08-07T04:30:21.757Z,1024.3
2022-08-07T04:31:07.753Z,1024.3
2022-08-07T04:32:11.421Z,1024.3
2022-08-07T04:33:09.532Z,1024.3
2022-08-07T04:34:02.367Z,1024.3
2022-08-07T04:35:06.277Z,1024.2
2022-08-07T04:36:07.120Z,1024.2
2022-08-07T04:37:03.985Z,1024.3
2022-08-07T04:38:08.013Z,1024.3
2022-08-07T04:39:02.032Z,1024.4
2022-08-07T04:40:02.544Z,1024.4
2022-08-07T04:41:03.568Z,1024.4
2022-08-07T04:42:02.393Z,1024.3
2022-08-07T04:43:09.339Z,1024.4
2022-08-07T04:44:19.391Z,1024.4
2022-08-07T04:45:08.618Z,1024.4
2022-08-07T04:46:02.795Z,1024.4
2022-08-07T04:47:09.311Z,1024.4
2022-08-07T04:48:11.502Z,1024.4
2022-08-07T04:49:18.202Z,1024.4
2022-08-07T04:50:05.136Z,1024.4
2022-08-07T04:51:03.881Z,1024.4
2022-08-07T04:52:03.328Z,1024.4
2022-08-07T04:53:03.783Z,1024.4
2022-08-07T04:54:07.952Z,1024.4
2022-08-07T04:58:29.644Z,1024.4
2022-08-07T04:59:01.496Z,1024.4
2022-08-07T04:59:16.854Z,1024.3
2022-08-07T04:59:17.724Z,1024.4
2022-08-07T05:00:24.198Z,1024.3
2022-08-07T05:00:30.550Z,1024.3
2022-08-07T05:01:03.266Z,1024.4
2022-08-07T05:02:02.112Z,1024.4
2022-08-07T05:03:01.969Z,1024.4
2022-08-07T05:04:17.491Z,1024.4
2022-08-07T05:05:02.196Z,1024.4
2022-08-07T05:06:20.703Z,1024.4
2022-08-07T05:07:22.614Z,1024.4
2022-08-07T05:08:01.786Z,1024.5
2022-08-07T05:09:03.571Z,1024.5
2022-08-07T05:10:05.814Z,1024.5
2022-08-07T05:11:03.107Z,1024.5
2022-08-07T05:12:04.970Z,1024.5
2022-08-07T05:15:05.249Z,1024.6
2022-08-07T05:15:05.250Z,1024.6
2022-08-07T05:15:05.665Z,1024.6
2022-08-07T05:16:05.355Z,1024.6
2022-08-07T05:17:12.345Z,1024.6
2022-08-07T05:18:10.811Z,1024.7
2022-08-07T05:19:04.585Z,1024.7
2022-08-07T05:20:10.392Z,1024.6
2022-08-07T05:21:04.826Z,1024.6
2022-08-07T05:22:05.332Z,1024.6
2022-08-07T05:23:02.636Z,1024.6
2022-08-07T05:24:02.462Z,1024.7
2022-08-07T05:25:25.427Z,1024.7
2022-08-07T05:26:24.611Z,1024.6
2022-08-07T05:27:05.217Z,1024.6
2022-08-07T05:28:27.534Z,1024.6
2022-08-07T05:29:04.944Z,1024.7
2022-08-07T05:30:02.794Z,1024.6
2022-08-07T05:31:04.168Z,1024.6
2022-08-07T05:32:03.960Z,1024.6
2022-08-07T05:33:03.998Z,1024.7
2022-08-07T05:34:12.390Z,1024.7
2022-08-07T05:35:02.773Z,1024.7
2022-08-07T05:36:05.734Z,1024.6
2022-08-07T05:37:06.648Z,1024.7
2022-08-07T05:38:10.221Z,1024.6
2022-08-07T05:40:20.485Z,1024.7
2022-08-07T05:40:20.788Z,1024.6
2022-08-07T05:41:18.236Z,1024.6
2022-08-07T05:42:12.888Z,1024.7
2022-08-07T05:43:03.250Z,1024.6
2022-08-07T05:44:13.385Z,1024.6
2022-08-07T05:45:48.489Z,1024.7
2022-08-07T05:46:02.668Z,1024.7
2022-08-07T05:47:21.055Z,1024.7
2022-08-07T05:48:04.189Z,1024.7
2022-08-07T05:49:14.602Z,1024.7
2022-08-07T05:50:01.930Z,1024.7
2022-08-07T05:51:04.000Z,1024.7
2022-08-07T05:52:03.599Z,1024.7
2022-08-07T05:53:01.837Z,1024.7
2022-08-07T05:54:55.655Z,1024.7
2022-08-07T05:55:11.660Z,1024.7
2022-08-07T05:56:07.140Z,1024.7
2022-08-07T05:57:03.965Z,1024.7
2022-08-07T05:58:03.793Z,1024.7
2022-08-07T05:59:03.192Z,1024.7
2022-08-07T06:00:02.062Z,1024.6
2022-08-07T06:01:06.191Z,1024.7
2022-08-07T06:02:03.824Z,1024.7
2022-08-07T06:03:06.436Z,1024.7
2022-08-07T06:04:02.684Z,1024.6
2022-08-07T06:05:04.269Z,1024.6
2022-08-07T06:06:02.563Z,1024.7
2022-08-07T06:07:04.942Z,1024.7
2022-08-07T06:08:32.839Z,1024.7
2022-08-07T06:09:05.562Z,1024.7
2022-08-07T06:10:15.218Z,1024.7
2022-08-07T06:11:04.470Z,1024.7
2022-08-07T06:12:02.286Z,1024.7
2022-08-07T06:13:02.932Z,1024.7
2022-08-07T06:14:28.607Z,1024.7
2022-08-07T06:15:06.292Z,1024.7
2022-08-07T06:16:02.627Z,1024.7
2022-08-07T06:17:07.749Z,1024.7
2022-08-07T06:18:03.090Z,1024.7
2022-08-07T06:19:01.976Z,1024.7
2022-08-07T06:20:05.860Z,1024.7
2022-08-07T06:22:27.594Z,1024.6
2022-08-07T06:22:27.822Z,1024.7
2022-08-07T06:24:58.248Z,1024.7
2022-08-07T06:25:01.333Z,1024.7
2022-08-07T06:25:03.622Z,1024.7
2022-08-07T06:26:02.528Z,1024.7
2022-08-07T06:27:05.401Z,1024.7
2022-08-07T06:28:03.825Z,1024.6
2022-08-07T06:29:06.667Z,1024.7
2022-08-07T06:30:02.861Z,1024.7
2022-08-07T06:31:05.950Z,1024.8
2022-08-07T06:32:05.010Z,1024.7
2022-08-07T06:33:03.780Z,1024.8
2022-08-07T06:34:02.646Z,1024.8
2022-08-07T06:35:18.282Z,1024.8
2022-08-07T06:36:35.668Z,1024.7
2022-08-07T06:37:03.445Z,1024.7
2022-08-07T06:38:02.169Z,1024.8
2022-08-07T06:40:21.727Z,1024.8
2022-08-07T06:40:21.845Z,1024.7
2022-08-07T06:41:02.393Z,1024.8
2022-08-07T06:42:04.629Z,1024.8
2022-08-07T06:43:07.486Z,1024.8
2022-08-07T06:44:11.352Z,1024.7
2022-08-07T06:45:02.436Z,1024.8
2022-08-07T06:46:02.128Z,1024.7
2022-08-07T06:47:15.843Z,1024.8
2022-08-07T06:48:02.657Z,1024.7
2022-08-07T06:49:05.020Z,1024.7
2022-08-07T06:50:08.458Z,1024.8
2022-08-07T06:51:09.852Z,1024.8
2022-08-07T06:52:10.722Z,1024.8
2022-08-07T06:53:04.906Z,1024.8
2022-08-07T06:56:01.126Z,1024.8
2022-08-07T06:56:02.022Z,1024.9
2022-08-07T06:56:02.708Z,1024.8
2022-08-07T06:57:03.249Z,1024.8
2022-08-07T06:58:02.073Z,1024.8
2022-08-07T07:00:18.678Z,1024.8
2022-08-07T07:00:18.717Z,1024.8
2022-08-07T07:01:04.561Z,1024.8
2022-08-07T07:02:05.559Z,1024.9
2022-08-07T07:03:17.450Z,1024.8
2022-08-07T07:04:34.410Z,1024.9
2022-08-07T07:05:02.480Z,1024.9
2022-08-07T07:06:11.581Z,1024.8
2022-08-07T07:08:00.448Z,1024.8
2022-08-07T07:08:25.807Z,1024.8
2022-08-07T07:09:04.228Z,1024.9
2022-08-07T07:10:02.258Z,1024.9
2022-08-07T07:12:16.752Z,1024.9
2022-08-07T07:12:19.768Z,1024.9
2022-08-07T07:13:02.914Z,1024.9
2022-08-07T07:14:03.245Z,1024.9
2022-08-07T07:15:23.690Z,1024.9
2022-08-07T07:16:03.708Z,1024.9
2022-08-07T07:17:03.764Z,1024.9
2022-08-07T07:18:06.004Z,1024.8
2022-08-07T07:19:59.040Z,1024.8
2022-08-07T07:20:03.437Z,1024.8
2022-08-07T07:21:19.254Z,1024.8
2022-08-07T07:24:05.273Z,1024.9
2022-08-07T07:24:13.043Z,1024.9
2022-08-07T07:24:13.186Z,1024.8
2022-08-07T07:26:37.323Z,1024.9
2022-08-07T07:26:38.297Z,1024.9
2022-08-07T07:27:04.329Z,1024.9
2022-08-07T07:29:22.781Z,1024.9
2022-08-07T07:30:12.347Z,1024.9
2022-08-07T07:30:32.861Z,1024.9
2022-08-07T07:31:03.395Z,1024.9
2022-08-07T07:32:02.739Z,1024.9
2022-08-07T07:33:02.228Z,1024.8
2022-08-07T07:34:03.908Z,1024.8
2022-08-07T07:35:04.610Z,1024.8
2022-08-07T07:36:13.501Z,1024.8
2022-08-07T07:37:49.847Z,1024.8
2022-08-07T07:38:06.634Z,1024.8
2022-08-07T07:39:03.745Z,1024.8
2022-08-07T07:40:02.843Z,1024.8
2022-08-07T07:41:03.061Z,1024.8
2022-08-07T07:42:20.865Z,1024.8
2022-08-07T07:43:47.659Z,1024.8
2022-08-07T07:44:26.908Z,1024.8
2022-08-07T07:45:03.095Z,1024.9
2022-08-07T07:47:13.641Z,1024.8
2022-08-07T07:47:24.386Z,1024.8
2022-08-07T07:48:02.246Z,1024.8
2022-08-07T07:50:40.466Z,1024.9
2022-08-07T07:50:40.538Z,1024.8
2022-08-07T07:51:08.496Z,1024.9
2022-08-07T07:52:05.800Z,1024.9
2022-08-07T07:53:01.901Z,1024.9
2022-08-07T07:54:03.166Z,1024.8
2022-08-07T07:55:05.944Z,1024.8
2022-08-07T07:56:04.515Z,1024.9
2022-08-07T07:57:03.624Z,1024.9
2022-08-07T07:58:03.735Z,1024.8
2022-08-07T07:59:02.615Z,1024.9
2022-08-07T08:00:03.147Z,1024.9
2022-08-07T08:02:11.117Z,1024.9
2022-08-07T08:02:11.285Z,1024.9
2022-08-07T08:03:08.727Z,1024.9
2022-08-07T08:04:12.389Z,1024.9
2022-08-07T08:05:03.827Z,1024.9
2022-08-07T08:06:03.337Z,1024.8
2022-08-07T08:07:08.293Z,1024.9
2022-08-07T08:08:02.982Z,1024.8
2022-08-07T08:09:02.245Z,1024.8
2022-08-07T08:10:06.261Z,1024.8
2022-08-07T08:11:04.232Z,1024.8
2022-08-07T08:12:06.328Z,1024.8
2022-08-07T08:13:03.647Z,1024.8
2022-08-07T08:14:02.857Z,1024.8
2022-08-07T08:15:07.524Z,1024.8
2022-08-07T08:16:02.870Z,1024.8
2022-08-07T08:18:17.745Z,1024.8
2022-08-07T08:18:19.207Z,1024.9
2022-08-07T08:20:27.457Z,1024.8
2022-08-07T08:20:32.311Z,1024.8
2022-08-07T08:21:03.045Z,1024.9
2022-08-07T08:22:08.099Z,1024.8
2022-08-07T08:23:02.544Z,1024.8
2022-08-07T08:24:02.363Z,1024.8
2022-08-07T08:25:49.503Z,1024.8
2022-08-07T08:26:08.092Z,1024.8
2022-08-07T08:27:09.987Z,1024.9
2022-08-07T08:28:04.470Z,1024.8
2022-08-07T08:29:04.287Z,1024.8
2022-08-07T08:30:04.335Z,1024.8
2022-08-07T08:31:06.105Z,1024.8
2022-08-07T08:32:38.095Z,1024.8
2022-08-07T08:33:03.517Z,1024.8
2022-08-07T08:34:03.628Z,1024.9
2022-08-07T08:35:03.466Z,1024.8
2022-08-07T08:36:02.947Z,1024.8
2022-08-07T08:37:03.090Z,1024.8
2022-08-07T08:38:09.630Z,1024.8
2022-08-07T08:39:03.504Z,1024.8
2022-08-07T08:40:02.574Z,1024.8
2022-08-07T08:41:05.630Z,1024.9
2022-08-07T08:42:02.959Z,1024.8
2022-08-07T08:43:02.662Z,1024.8
2022-08-07T08:44:02.483Z,1024.8
2022-08-07T08:45:04.938Z,1024.8
2022-08-07T08:46:01.657Z,1024.8
2022-08-07T08:47:02.525Z,1024.7
2022-08-07T08:48:04.810Z,1024.7
2022-08-07T08:49:05.856Z,1024.8
2022-08-07T08:50:06.438Z,1024.8
2022-08-07T08:51:23.264Z,1024.7
2022-08-07T08:52:19.257Z,1024.7
2022-08-07T08:53:02.073Z,1024.8
2022-08-07T08:54:02.527Z,1024.7
2022-08-07T08:55:08.368Z,1024.7
2022-08-07T08:56:01.917Z,1024.8
2022-08-07T08:57:03.281Z,1024.6
2022-08-07T08:58:04.549Z,1024.8
2022-08-07T08:59:16.273Z,1024.8
2022-08-07T09:00:02.298Z,1024.8
2022-08-07T09:01:19.584Z,1024.9
2022-08-07T09:02:03.170Z,1024.9
2022-08-07T09:03:08.555Z,1024.9
2022-08-07T09:04:02.355Z,1024.9
2022-08-07T09:05:02.253Z,1024.9
2022-08-07T09:06:02.711Z,1024.9
2022-08-07T09:07:04.334Z,1024.9
2022-08-07T09:08:03.634Z,1024.8
2022-08-07T09:09:23.885Z,1024.8
2022-08-07T09:10:04.052Z,1024.8
2022-08-07T09:11:02.167Z,1024.7
2022-08-07T09:12:32.454Z,1024.8
2022-08-07T09:13:03.141Z,1024.7
2022-08-07T09:14:01.981Z,1024.7
2022-08-07T09:16:30.956Z,1024.8
2022-08-07T09:16:30.982Z,1024.8
2022-08-07T09:17:02.464Z,1024.7
2022-08-07T09:18:20.644Z,1024.7
2022-08-07T09:19:54.966Z,1024.7
2022-08-07T09:20:37.390Z,1024.7
2022-08-07T09:21:02.228Z,1024.7
2022-08-07T09:25:02.562Z,1024.7
2022-08-07T09:25:02.602Z,1024.7
2022-08-07T09:25:12.209Z,1024.6
2022-08-07T09:25:18.263Z,1024.7
2022-08-07T09:26:02.760Z,1024.7
2022-08-07T09:27:13.873Z,1024.7
2022-08-07T09:28:03.938Z,1024.6
2022-08-07T09:30:09.197Z,1024.7
2022-08-07T09:30:09.597Z,1024.7
2022-08-07T09:31:04.507Z,1024.6
2022-08-07T09:32:02.340Z,1024.7
2022-08-07T09:33:41.376Z,1024.7
2022-08-07T09:34:02.497Z,1024.7
2022-08-07T09:36:06.283Z,1024.6
2022-08-07T09:36:07.935Z,1024.6
2022-08-07T09:37:02.575Z,1024.6
2022-08-07T09:38:02.395Z,1024.6
2022-08-07T09:39:57.675Z,1024.6
2022-08-07T09:40:02.390Z,1024.6
2022-08-07T09:41:04.999Z,1024.6
2022-08-07T09:42:09.502Z,1024.6
2022-08-07T09:43:02.176Z,1024.6
2022-08-07T09:44:30.141Z,1024.6
2022-08-07T09:48:06.295Z,1024.6
2022-08-07T09:48:08.916Z,1024.6
2022-08-07T09:50:20.336Z,1024.6
2022-08-07T09:50:21.371Z,1024.6
2022-08-07T09:51:14.498Z,1024.6
2022-08-07T09:52:35.450Z,1024.6
2022-08-07T09:53:02.377Z,1024.6
2022-08-07T09:54:03.812Z,1024.6
2022-08-07T09:55:02.984Z,1024.6
2022-08-07T09:56:05.629Z,1024.6
2022-08-07T09:57:06.229Z,1024.5
2022-08-07T09:58:02.593Z,1024.5
2022-08-07T09:59:15.010Z,1024.6
2022-08-07T10:00:04.440Z,1024.6
2022-08-07T10:01:14.781Z,1024.5
2022-08-07T10:02:02.178Z,1024.5
2022-08-07T10:04:15.908Z,1024.4
2022-08-07T10:04:16.536Z,1024.4
2022-08-07T10:05:14.994Z,1024.5
2022-08-07T10:06:12.481Z,1024.4
2022-08-07T10:07:03.857Z,1024.4
2022-08-07T10:08:05.180Z,1024.4
2022-08-07T10:09:01.997Z,1024.4
2022-08-07T10:10:03.776Z,1024.4
2022-08-07T10:12:18.275Z,1024.4
2022-08-07T10:12:26.226Z,1024.4
2022-08-07T10:13:04.090Z,1024.3
2022-08-07T10:14:03.426Z,1024.4
2022-08-07T10:15:03.473Z,1024.4
2022-08-07T10:16:05.516Z,1024.3
2022-08-07T10:17:02.331Z,1024.4
2022-08-07T10:18:04.188Z,1024.3
2022-08-07T10:19:02.014Z,1024.3
2022-08-07T10:20:02.495Z,1024.4
2022-08-07T10:21:02.297Z,1024.3
2022-08-07T10:22:17.598Z,1024.3
2022-08-07T10:23:09.984Z,1024.2
2022-08-07T10:24:10.312Z,1024.4
2022-08-07T10:25:02.375Z,1024.3
2022-08-07T10:26:02.089Z,1024.4
2022-08-07T10:27:10.947Z,1024.3
2022-08-07T10:28:03.017Z,1024.3
2022-08-07T10:29:01.849Z,1024.3
2022-08-07T10:30:04.624Z,1024.3
2022-08-07T10:31:11.646Z,1024.2
2022-08-07T10:32:04.662Z,1024.2
2022-08-07T10:33:02.278Z,1024.2
2022-08-07T10:34:18.605Z,1024.2
2022-08-07T10:35:16.547Z,1024.2
2022-08-07T10:36:13.001Z,1024.2
2022-08-07T10:37:12.846Z,1024.2
2022-08-07T10:38:51.096Z,1024.2
2022-08-07T10:39:08.744Z,1024.2
2022-08-07T10:40:12.914Z,1024.2
2022-08-07T10:41:01.804Z,1024.2
2022-08-07T10:42:36.279Z,1024.2
2022-08-07T10:43:02.492Z,1024.2
2022-08-07T10:44:08.413Z,1024.2
2022-08-07T10:45:02.291Z,1024.2
2022-08-07T10:46:02.413Z,1024.2
2022-08-07T10:47:14.080Z,1024.1
2022-08-07T10:48:07.715Z,1024.2
2022-08-07T10:49:02.512Z,1024.2
2022-08-07T10:50:02.438Z,1024.1
2022-08-07T10:51:04.459Z,1024.1
2022-08-07T10:52:14.432Z,1024.1
2022-08-07T10:53:09.410Z,1024.1
2022-08-07T10:54:02.213Z,1024
2022-08-07T10:55:39.125Z,1024
2022-08-07T10:56:05.132Z,1024.1
2022-08-07T10:57:04.799Z,1024
2022-08-07T10:58:05.180Z,1024
2022-08-07T10:59:02.029Z,1024
2022-08-07T11:00:02.079Z,1024
2022-08-07T11:01:15.385Z,1024
2022-08-07T11:02:34.210Z,1023.9
2022-08-07T11:03:02.357Z,1023.9
2022-08-07T11:04:37.648Z,1023.9
2022-08-07T11:05:11.208Z,1023.8
2022-08-07T11:06:06.680Z,1023.8
2022-08-07T11:07:03.459Z,1023.9
2022-08-07T11:08:04.490Z,1023.8
2022-08-07T11:09:02.601Z,1023.9
2022-08-07T11:10:11.588Z,1023.8
2022-08-07T11:11:02.421Z,1023.9
2022-08-07T11:12:05.599Z,1023.8
2022-08-07T11:13:03.099Z,1023.9
2022-08-07T11:15:01.114Z,1023.8
2022-08-07T11:15:02.058Z,1023.9
2022-08-07T11:16:07.782Z,1023.8
2022-08-07T11:17:09.365Z,1023.8
2022-08-07T11:18:04.955Z,1023.8
2022-08-07T11:19:03.179Z,1023.8
2022-08-07T11:20:03.875Z,1023.8
2022-08-07T11:21:04.471Z,1023.8
2022-08-07T11:22:03.847Z,1023.8
2022-08-07T11:23:02.696Z,1023.8
2022-08-07T11:24:02.813Z,1023.8
2022-08-07T11:25:07.708Z,1023.9
2022-08-07T11:26:07.009Z,1023.8
2022-08-07T11:27:01.829Z,1023.8
2022-08-07T11:28:05.603Z,1023.8
2022-08-07T11:29:48.235Z,1023.8
2022-08-07T11:30:41.607Z,1023.8
2022-08-07T11:31:02.326Z,1023.8
2022-08-07T11:32:02.808Z,1023.8
2022-08-07T11:33:15.274Z,1023.7
2022-08-07T11:34:04.394Z,1023.7
2022-08-07T11:35:02.868Z,1023.8
2022-08-07T11:36:10.698Z,1023.7
2022-08-07T11:37:02.816Z,1023.8
2022-08-07T11:38:17.994Z,1023.7
2022-08-07T11:39:07.362Z,1023.8
2022-08-07T11:40:04.549Z,1023.7
2022-08-07T11:41:04.259Z,1023.7
2022-08-07T11:42:03.805Z,1023.8
2022-08-07T11:43:02.298Z,1023.8
2022-08-07T11:44:18.992Z,1023.7
2022-08-07T11:45:04.009Z,1023.7
2022-08-07T11:46:02.367Z,1023.7
2022-08-07T11:47:03.217Z,1023.7
2022-08-07T11:48:29.951Z,1023.7
2022-08-07T11:50:33.415Z,1023.7
2022-08-07T11:50:33.765Z,1023.7
2022-08-07T11:51:09.808Z,1023.6
2022-08-07T11:52:03.658Z,1023.7
2022-08-07T11:53:05.672Z,1023.6
2022-08-07T11:54:10.847Z,1023.6
2022-08-07T11:56:27.970Z,1023.5
2022-08-07T11:56:28.673Z,1023.6
2022-08-07T11:57:02.520Z,1023.6
2022-08-07T11:58:02.671Z,1023.6
2022-08-07T11:59:02.783Z,1023.6
2022-08-07T12:00:20.249Z,1023.6
2022-08-07T12:01:07.117Z,1023.6
2022-08-07T12:02:02.152Z,1023.6
2022-08-07T12:03:02.186Z,1023.5
2022-08-07T12:04:02.882Z,1023.6
2022-08-07T12:05:02.927Z,1023.6
2022-08-07T12:06:57.381Z,1023.6
2022-08-07T12:07:27.397Z,1023.5
2022-08-07T12:08:05.286Z,1023.5
2022-08-07T12:09:07.642Z,1023.5
2022-08-07T12:10:07.275Z,1023.5
2022-08-07T12:11:23.151Z,1023.5
2022-08-07T12:12:12.574Z,1023.5
2022-08-07T12:13:18.882Z,1023.4
2022-08-07T12:14:02.543Z,1023.4
2022-08-07T12:15:04.135Z,1023.4
2022-08-07T12:16:09.686Z,1023.4
2022-08-07T12:17:04.830Z,1023.4
2022-08-07T12:18:11.653Z,1023.5
2022-08-07T12:19:02.525Z,1023.4
2022-08-07T12:20:29.953Z,1023.3
2022-08-07T12:21:02.603Z,1023.4
2022-08-07T12:22:59.127Z,1023.5
2022-08-07T12:23:14.703Z,1023.4
2022-08-07T12:24:40.278Z,1023.5
2022-08-07T12:25:08.090Z,1023.5
2022-08-07T12:26:35.526Z,1023.4
2022-08-07T12:27:16.380Z,1023.5
2022-08-07T12:28:11.723Z,1023.4
2022-08-07T12:29:04.145Z,1023.4
2022-08-07T12:30:02.461Z,1023.5
2022-08-07T12:31:04.843Z,1023.5
2022-08-07T12:32:12.528Z,1023.4
2022-08-07T12:33:55.849Z,1023.5
2022-08-07T12:34:11.487Z,1023.4
2022-08-07T12:35:08.681Z,1023.4
2022-08-07T12:36:05.880Z,1023.4